»·PEaware :: N471JR KSBP-KSMX

N471JR :: KSBP-KSMX

FLIGHT INFORMATION

Flight Status: Arrived
Operator: Privately registered:
United States
More flights under this callsign
Pilot: Jose E O. (29658)
Aircraft: CESSNA 172 SKYHAWK
(C172)
More flights by this aircraft type
Origin: KSBP San Luis Co Regl
United States
Destination: KSMX Santa Maria Pub/Capt Hancock
United States
More flights between these airports :: More routes between these airports
Route: DIRECT TO KSMX
File this flight plan on PilotEdge
Remarks:
Altitude:
(Current/Filed)
2,500ft
Speed:
(Current/Filed)
110kts
Departed: 22-May-20 08:12 PM
Arrived: 22-May-20 08:51 PM
Distance/Time
Traveled:
22nm/0:39
Distance/Time
To Go:
Arrived

Flight Plot

Page will automatically refresh every two minutes.


Map Options




Map Legend


Flown Route
Filed Route
Departure Airport
Arrival Airport
Navaid (VOR, NDB)
Fix

Horizontal Profiles

Position Reports

Time Latitude Longitude Heading Altitude Ground
Speed
22-May-20 20:03 35.238248 -120.639994 308 216ft 0kts
22-May-20 20:04 35.238248 -120.639994 308 216ft 0kts
22-May-20 20:05 35.238248 -120.639994 308 216ft 0kts
22-May-20 20:06 35.238253 -120.640002 306 216ft 1kts
22-May-20 20:07 35.235732 -120.636284 125 216ft 29kts
22-May-20 20:08 35.233537 -120.632444 134 216ft 0kts
22-May-20 20:09 35.233537 -120.632444 134 216ft 0kts
22-May-20 20:10 35.232972 -120.633386 307 216ft 0kts
22-May-20 20:11 35.242477 -120.647040 300 960ft 62kts
22-May-20 20:12 35.228864 -120.656421 132 1274ft 113kts
22-May-20 20:13 35.207368 -120.628493 141 1549ft 102kts
22-May-20 20:14 35.187982 -120.607943 143 1927ft 102kts
22-May-20 20:15 35.165794 -120.585941 144 2094ft 116kts
22-May-20 20:16 35.141851 -120.562515 144 2092ft 105kts
22-May-20 20:17 35.118367 -120.542170 153 2094ft 102kts
22-May-20 20:18 35.093857 -120.524831 155 2096ft 101kts
22-May-20 20:19 35.069167 -120.508156 159 2097ft 101kts
22-May-20 20:20 35.043713 -120.493411 160 2099ft 101kts
22-May-20 20:21 35.017349 -120.481546 187 1975ft 102kts
22-May-20 20:22 34.991071 -120.486909 227 1240ft 89kts
22-May-20 20:23 34.968358 -120.494351 188 753ft 76kts
22-May-20 20:24 34.945999 -120.489569 140 678ft 90kts
22-May-20 20:25 34.930920 -120.478724 151 693ft 93kts
22-May-20 20:29 35.238248 -120.639994 308 216ft 0kts
22-May-20 20:30 35.238248 -120.639994 308 216ft 0kts
22-May-20 20:31 35.237504 -120.639350 123 216ft 19kts
22-May-20 20:32 35.233818 -120.632874 124 216ft 17kts
22-May-20 20:33 35.233565 -120.632485 134 216ft 0kts
22-May-20 20:34 35.235154 -120.637110 308 259ft 70kts
22-May-20 20:35 35.241859 -120.659740 233 1164ft 99kts
22-May-20 20:36 35.221268 -120.644786 118 839ft 107kts
22-May-20 20:37 35.200948 -120.617380 146 1002ft 115kts
22-May-20 20:38 35.174966 -120.594587 146 1478ft 115kts
22-May-20 20:39 35.148036 -120.574340 159 1992ft 112kts
22-May-20 20:40 35.116300 -120.556982 159 2034ft 132kts
22-May-20 20:41 35.082498 -120.538728 163 2036ft 133kts
22-May-20 20:42 35.049044 -120.522699 163 2037ft 123kts
22-May-20 20:43 35.016499 -120.508044 168 1537ft 124kts
22-May-20 20:44 34.984044 -120.503858 185 1148ft 108kts
22-May-20 20:45 34.953136 -120.502392 185 1019ft 116kts
22-May-20 20:46 34.925488 -120.484511 184 585ft 102kts
22-May-20 20:47 34.907487 -120.457701 119 748ft 97kts
22-May-20 20:48 34.890093 -120.429612 147 803ft 100kts
22-May-20 20:49 34.883323 -120.435467 323 654ft 62kts
22-May-20 20:50 34.895104 -120.448441 306 267ft 34kts
22-May-20 20:51 34.897854 -120.450295 357 265ft 0kts
22-May-20 20:52 34.898282 -120.450294 359 265ft 9kts
22-May-20 20:53 34.900413 -120.450973 359 265ft 6kts
22-May-20 20:54 34.900925 -120.451071 342 265ft 0kts
22-May-20 20:55 34.900925 -120.451071 342 265ft 0kts
22-May-20 20:56 34.900925 -120.451071 342 265ft 0kts
22-May-20 20:57 34.900925 -120.451071 342 265ft 0kts
22-May-20 20:58 34.900925 -120.451071 342 265ft 0kts

Navigation Log

Ident Type
Flight plan parsing failed, navigation log unavailable